createdAt,value
2022-11-10T00:02:27.009Z,80.50
2022-11-10T00:05:14.734Z,80.60
2022-11-10T00:08:05.756Z,80.50
2022-11-10T00:10:58.291Z,80.30
2022-11-10T00:14:07.202Z,80.40
2022-11-10T00:17:04.232Z,80.40
2022-11-10T00:19:50.141Z,80.50
2022-11-10T00:22:38.043Z,80.50
2022-11-10T00:25:26.627Z,80.60
2022-11-10T00:28:12.599Z,80.60
2022-11-10T00:30:59.201Z,80.70
2022-11-10T00:33:45.286Z,80.70
2022-11-10T00:36:31.902Z,80.80
2022-11-10T00:39:17.847Z,80.70
2022-11-10T00:42:04.629Z,80.60
2022-11-10T00:44:51.056Z,80.60
2022-11-10T00:47:36.965Z,80.60
2022-11-10T00:50:22.730Z,80.50
2022-11-10T00:53:08.575Z,80.30
2022-11-10T00:55:54.749Z,80.10
2022-11-10T00:58:41.117Z,79.90
2022-11-10T01:01:27.422Z,79.90
2022-11-10T01:04:13.694Z,79.70
2022-11-10T01:06:59.594Z,79.80
2022-11-10T01:09:45.960Z,79.70
2022-11-10T01:12:32.276Z,79.80
2022-11-10T01:15:26.034Z,79.80
2022-11-10T01:18:13.351Z,79.80
2022-11-10T01:20:59.475Z,79.80
2022-11-10T01:23:45.905Z,79.80
2022-11-10T01:26:32.395Z,79.90
2022-11-10T01:29:18.127Z,79.90
2022-11-10T01:32:04.082Z,79.90
2022-11-10T01:34:49.813Z,79.90
2022-11-10T01:37:36.020Z,79.70
2022-11-10T01:40:21.868Z,79.80
2022-11-10T01:43:10.572Z,79.90
2022-11-10T01:46:04.877Z,80.00
2022-11-10T01:48:56.271Z,80.20
2022-11-10T01:51:52.239Z,80.30
2022-11-10T01:54:45.831Z,80.50
2022-11-10T01:57:32.118Z,80.40
2022-11-10T02:00:19.243Z,80.30
2022-11-10T02:03:16.353Z,80.20
2022-11-10T02:06:04.420Z,80.20
2022-11-10T02:08:51.303Z,80.10
2022-11-10T02:11:38.859Z,80.00
2022-11-10T02:14:25.447Z,80.00
2022-11-10T02:17:12.229Z,79.90
2022-11-10T02:20:04.780Z,79.90
2022-11-10T02:22:50.552Z,80.00
2022-11-10T02:25:36.999Z,80.20
2022-11-10T02:28:24.346Z,80.50
2022-11-10T02:31:10.626Z,80.60
2022-11-10T02:33:57.078Z,80.60
2022-11-10T02:36:43.680Z,80.70
2022-11-10T02:39:29.665Z,80.60
2022-11-10T02:42:15.746Z,80.60
2022-11-10T02:45:01.696Z,80.80
2022-11-10T02:47:47.842Z,80.90
2022-11-10T02:50:34.369Z,81.20
2022-11-10T02:53:20.705Z,81.50
2022-11-10T02:56:07.302Z,81.40
2022-11-10T02:58:53.043Z,81.40
2022-11-10T03:01:39.238Z,81.40
2022-11-10T03:04:25.546Z,81.40
2022-11-10T03:07:11.532Z,81.40
2022-11-10T03:09:57.635Z,81.50
2022-11-10T03:12:43.260Z,81.50
2022-11-10T03:15:30.233Z,81.40
2022-11-10T03:18:16.164Z,81.40
2022-11-10T03:21:03.363Z,81.20
2022-11-10T03:23:49.103Z,81.20
2022-11-10T03:26:35.069Z,81.10
2022-11-10T03:29:20.766Z,81.30
2022-11-10T03:32:06.639Z,81.40
2022-11-10T03:34:52.435Z,81.40
2022-11-10T03:37:41.075Z,81.30
2022-11-10T03:40:27.357Z,81.40
2022-11-10T03:43:13.429Z,81.30
2022-11-10T03:45:59.323Z,81.30
2022-11-10T03:48:50.230Z,81.10
2022-11-10T03:51:39.069Z,81.10
2022-11-10T03:54:24.730Z,81.00
2022-11-10T03:57:10.466Z,81.10
2022-11-10T03:59:56.169Z,81.20
2022-11-10T04:02:42.098Z,81.30
2022-11-10T04:05:46.801Z,81.40
2022-11-10T04:08:51.588Z,81.60
2022-11-10T04:11:56.420Z,81.50
2022-11-10T04:15:01.118Z,81.30
2022-11-10T04:17:50.783Z,81.20
2022-11-10T04:20:36.680Z,81.10
2022-11-10T04:23:27.786Z,81.10
2022-11-10T04:26:30.192Z,80.90
2022-11-10T04:29:19.105Z,80.80
2022-11-10T04:32:05.166Z,80.70
2022-11-10T04:34:51.116Z,80.80
2022-11-10T04:37:37.396Z,81.00
2022-11-10T04:40:23.382Z,81.10
2022-11-10T04:43:09.023Z,81.10
2022-11-10T04:45:54.879Z,81.10
2022-11-10T04:48:40.335Z,80.90
2022-11-10T04:51:29.333Z,80.80
2022-11-10T04:54:15.427Z,80.80
2022-11-10T04:57:01.354Z,80.90
2022-11-10T04:59:47.048Z,81.10
2022-11-10T05:02:38.310Z,81.10
2022-11-10T05:05:26.224Z,81.00
2022-11-10T05:08:12.354Z,81.10
2022-11-10T05:10:58.161Z,81.10
2022-11-10T05:13:45.475Z,81.00
2022-11-10T05:16:31.956Z,80.70
2022-11-10T05:19:17.822Z,80.70
2022-11-10T05:22:03.796Z,80.70
2022-11-10T05:24:49.614Z,80.80
2022-11-10T05:27:35.494Z,81.10
2022-11-10T05:30:21.343Z,81.30
2022-11-10T05:33:08.191Z,81.40
2022-11-10T05:35:54.212Z,81.50
2022-11-10T05:38:43.509Z,81.50
2022-11-10T05:41:29.781Z,81.50
2022-11-10T05:44:15.687Z,81.50
2022-11-10T05:47:01.577Z,81.30
2022-11-10T05:49:47.370Z,81.20
2022-11-10T05:52:33.355Z,81.20
2022-11-10T05:55:27.292Z,81.30
2022-11-10T05:58:13.036Z,81.40
2022-11-10T06:00:59.127Z,81.70
2022-11-10T06:03:45.424Z,81.90
2022-11-10T06:06:31.727Z,82.70
2022-11-10T06:09:17.503Z,81.90
2022-11-10T06:12:04.033Z,81.90
2022-11-10T06:14:49.797Z,82.00
2022-11-10T06:17:37.835Z,82.00
2022-11-10T06:20:24.892Z,82.00
2022-11-10T06:23:12.032Z,81.70
2022-11-10T06:25:58.518Z,81.50
2022-11-10T06:28:44.620Z,81.40
2022-11-10T06:31:30.681Z,81.50
2022-11-10T06:34:16.578Z,81.50
2022-11-10T06:37:02.555Z,81.60
2022-11-10T06:39:48.508Z,81.70
2022-11-10T06:42:34.879Z,81.90
2022-11-10T06:45:22.005Z,82.20
2022-11-10T06:48:11.598Z,82.50
2022-11-10T06:51:01.760Z,82.90
2022-11-10T06:53:47.696Z,83.30
2022-11-10T06:56:34.732Z,83.70
2022-11-10T06:59:20.909Z,84.10
2022-11-10T07:02:13.707Z,84.40
2022-11-10T07:05:00.074Z,84.60
2022-11-10T07:07:46.323Z,84.50
2022-11-10T07:10:33.047Z,84.30
2022-11-10T07:13:20.064Z,84.10
2022-11-10T07:16:08.242Z,84.10
2022-11-10T07:18:54.487Z,84.00
2022-11-10T07:21:42.397Z,83.90
2022-11-10T07:24:30.493Z,83.90
2022-11-10T07:27:16.862Z,83.70
2022-11-10T07:30:03.361Z,83.60
2022-11-10T07:33:02.495Z,83.60
2022-11-10T07:35:55.057Z,83.70
2022-11-10T07:38:40.959Z,83.70
2022-11-10T07:41:27.004Z,83.80
2022-11-10T07:44:12.850Z,83.80
2022-11-10T07:46:59.061Z,83.70
2022-11-10T07:49:45.104Z,83.70
2022-11-10T07:52:30.892Z,83.50
2022-11-10T07:55:16.934Z,83.40
2022-11-10T07:58:03.596Z,83.30
2022-11-10T08:00:49.554Z,83.10
2022-11-10T08:03:35.513Z,83.60
2022-11-10T08:06:21.673Z,82.60
2022-11-10T08:09:07.716Z,82.70
2022-11-10T08:11:53.698Z,82.40
2022-11-10T08:14:39.535Z,82.90
2022-11-10T08:17:25.638Z,81.80
2022-11-10T08:20:12.398Z,81.30
2022-11-10T08:23:03.593Z,81.30
2022-11-10T08:25:52.858Z,81.40
2022-11-10T08:28:38.715Z,81.50
2022-11-10T08:31:25.075Z,81.20
2022-11-10T08:34:11.243Z,80.80
2022-11-10T08:36:58.677Z,80.80
2022-11-10T08:39:44.751Z,80.40
2022-11-10T08:42:30.920Z,79.80
2022-11-10T08:45:16.922Z,79.40
2022-11-10T08:48:06.235Z,78.90
2022-11-10T08:50:52.565Z,78.60
2022-11-10T08:53:38.621Z,78.50
2022-11-10T08:56:26.428Z,78.30
2022-11-10T08:59:12.746Z,78.30
2022-11-10T09:01:58.960Z,78.30
2022-11-10T09:04:45.183Z,77.80
2022-11-10T09:07:32.126Z,77.40
2022-11-10T09:10:18.823Z,77.10
2022-11-10T09:13:06.022Z,77.10
2022-11-10T09:15:52.223Z,77.40
2022-11-10T09:18:37.732Z,77.40
2022-11-10T09:21:23.550Z,77.30
2022-11-10T09:24:09.330Z,77.50
2022-11-10T09:26:55.366Z,77.50
2022-11-10T09:29:41.982Z,77.60
2022-11-10T09:32:27.955Z,77.70
2022-11-10T09:35:13.989Z,77.90
2022-11-10T09:38:00.088Z,78.10
2022-11-10T09:40:55.957Z,78.10
2022-11-10T09:43:47.944Z,78.00
2022-11-10T09:46:44.742Z,77.90
2022-11-10T09:49:44.967Z,77.00
2022-11-10T09:52:35.910Z,76.70
2022-11-10T09:55:37.511Z,77.40
2022-11-10T09:58:29.898Z,76.60
2022-11-10T10:01:19.185Z,76.60
2022-11-10T10:04:21.599Z,76.50
2022-11-10T10:07:13.330Z,76.00
2022-11-10T10:10:23.967Z,76.20
2022-11-10T10:13:49.230Z,75.80
2022-11-10T10:16:50.996Z,75.90
2022-11-10T10:19:41.359Z,75.60
2022-11-10T10:22:52.441Z,75.60
2022-11-10T10:25:41.596Z,75.00
2022-11-10T10:28:38.152Z,75.00
2022-11-10T10:31:32.627Z,75.20
2022-11-10T10:34:24.480Z,74.80
2022-11-10T10:37:25.619Z,74.90
2022-11-10T10:40:17.315Z,75.00
2022-11-10T10:43:04.287Z,74.60
2022-11-10T10:46:09.441Z,74.50
2022-11-10T10:49:28.194Z,74.40
2022-11-10T10:52:25.105Z,74.30
2022-11-10T10:55:14.052Z,73.90
2022-11-10T10:58:03.772Z,73.70
2022-11-10T11:01:06.282Z,73.70
2022-11-10T11:03:53.521Z,73.50
2022-11-10T11:06:39.852Z,72.80
2022-11-10T11:09:29.918Z,71.80
2022-11-10T11:12:22.312Z,72.00
2022-11-10T11:15:29.454Z,71.80
2022-11-10T11:18:17.950Z,72.40
2022-11-10T11:21:18.824Z,72.50
2022-11-10T11:24:25.935Z,72.20
2022-11-10T11:27:37.758Z,71.50
2022-11-10T11:30:28.457Z,71.60
2022-11-10T11:33:38.118Z,72.30
2022-11-10T11:36:34.756Z,72.60
2022-11-10T11:39:42.647Z,72.20
2022-11-10T11:42:49.458Z,72.20
2022-11-10T11:45:49.276Z,72.30
2022-11-10T11:48:51.560Z,71.80
2022-11-10T11:51:51.498Z,71.60
2022-11-10T11:55:04.207Z,71.20
2022-11-10T11:58:11.822Z,70.70
2022-11-10T12:01:22.666Z,70.40
2022-11-10T12:04:17.370Z,70.20
2022-11-10T12:07:28.330Z,70.70
2022-11-10T12:10:42.991Z,70.30
2022-11-10T12:14:02.592Z,70.20
2022-11-10T12:17:21.532Z,70.30
2022-11-10T12:20:33.640Z,70.40
2022-11-10T12:23:25.449Z,70.60
2022-11-10T12:26:52.554Z,70.60
2022-11-10T12:29:47.719Z,70.00
2022-11-10T12:32:41.957Z,69.60
2022-11-10T12:35:32.590Z,69.60
2022-11-10T12:38:29.163Z,69.30
2022-11-10T12:41:18.303Z,69.30
2022-11-10T12:44:35.276Z,69.00
2022-11-10T12:47:25.837Z,69.40
2022-11-10T12:50:39.634Z,69.60
2022-11-10T12:53:38.856Z,69.50
2022-11-10T12:56:50.491Z,69.50
2022-11-10T12:59:39.329Z,68.70
2022-11-10T13:02:37.979Z,68.80
2022-11-10T13:05:23.595Z,68.30
2022-11-10T13:08:19.989Z,67.60
2022-11-10T13:11:24.455Z,67.60
2022-11-10T13:14:22.606Z,68.00
2022-11-10T13:17:11.563Z,68.20
2022-11-10T13:20:20.817Z,68.20
2022-11-10T13:23:31.216Z,67.70
2022-11-10T13:26:40.300Z,67.60
2022-11-10T13:29:35.100Z,67.80
2022-11-10T13:32:30.204Z,68.00
2022-11-10T13:35:28.203Z,67.80
2022-11-10T13:38:32.562Z,67.90
2022-11-10T13:41:18.735Z,68.00
2022-11-10T13:44:24.785Z,68.00
2022-11-10T13:47:19.053Z,68.40
2022-11-10T13:50:28.113Z,68.50
2022-11-10T13:53:20.193Z,68.30
2022-11-10T13:56:40.318Z,68.50
2022-11-10T13:59:30.098Z,68.70
2022-11-10T14:02:34.893Z,68.90
2022-11-10T14:05:41.868Z,69.00
2022-11-10T14:08:32.634Z,69.10
2022-11-10T14:11:24.179Z,69.40
2022-11-10T14:14:25.003Z,69.30
2022-11-10T14:17:29.882Z,69.60
2022-11-10T14:20:26.078Z,69.70
2022-11-10T14:23:41.777Z,69.70
2022-11-10T14:26:32.972Z,69.80
2022-11-10T14:29:38.608Z,70.10
2022-11-10T14:32:26.011Z,70.10
2022-11-10T14:35:25.769Z,70.40
2022-11-10T14:38:21.235Z,70.40
2022-11-10T14:41:18.777Z,70.50
2022-11-10T14:44:07.690Z,70.60
2022-11-10T14:46:54.781Z,70.60
2022-11-10T14:49:41.841Z,70.80
2022-11-10T14:52:27.847Z,70.70
2022-11-10T14:55:18.336Z,70.80
2022-11-10T14:58:10.338Z,70.90
2022-11-10T15:00:56.501Z,71.10
2022-11-10T15:03:43.206Z,71.00
2022-11-10T15:06:30.666Z,71.00
2022-11-10T15:09:24.487Z,71.00
2022-11-10T15:12:13.326Z,71.20
2022-11-10T15:15:00.919Z,71.40
2022-11-10T15:17:50.448Z,71.30
2022-11-10T15:20:41.108Z,71.30
2022-11-10T15:23:36.469Z,71.50
2022-11-10T15:26:28.383Z,71.60
2022-11-10T15:29:21.623Z,71.60
2022-11-10T15:32:16.338Z,71.70
2022-11-10T15:35:22.136Z,71.90
2022-11-10T15:38:20.602Z,72.10
2022-11-10T15:41:27.360Z,72.30
2022-11-10T15:44:17.260Z,72.40
2022-11-10T15:47:03.497Z,72.50
2022-11-10T15:49:49.657Z,72.80
2022-11-10T15:52:38.591Z,72.90
2022-11-10T15:55:25.265Z,73.00
2022-11-10T15:58:18.010Z,73.30
2022-11-10T16:01:04.609Z,73.60
2022-11-10T16:03:50.724Z,73.70
2022-11-10T16:06:37.334Z,74.20
2022-11-10T16:09:23.390Z,74.40
2022-11-10T16:12:16.399Z,74.60
2022-11-10T16:15:02.710Z,74.80
2022-11-10T16:17:48.529Z,74.50
2022-11-10T16:20:34.421Z,74.50
2022-11-10T16:23:20.429Z,74.60
2022-11-10T16:26:07.686Z,74.60
2022-11-10T16:28:53.690Z,74.60
2022-11-10T16:31:39.819Z,74.60
2022-11-10T16:34:25.802Z,74.80
2022-11-10T16:37:13.025Z,74.90
2022-11-10T16:39:59.216Z,75.00
2022-11-10T16:42:45.657Z,75.10
2022-11-10T16:45:32.033Z,75.20
2022-11-10T16:48:23.884Z,75.40
2022-11-10T16:51:11.234Z,75.60
2022-11-10T16:53:59.393Z,75.50
2022-11-10T16:56:45.631Z,75.60
2022-11-10T16:59:31.665Z,75.60
2022-11-10T17:02:31.370Z,75.70
2022-11-10T17:05:19.414Z,76.00
2022-11-10T17:08:05.583Z,75.80
2022-11-10T17:10:52.053Z,75.80
2022-11-10T17:13:38.018Z,75.80
2022-11-10T17:16:35.681Z,75.90
2022-11-10T17:19:25.020Z,76.10
2022-11-10T17:22:12.500Z,76.00
2022-11-10T17:24:58.546Z,76.00
2022-11-10T17:27:44.642Z,76.00
2022-11-10T17:30:30.904Z,76.20
2022-11-10T17:33:16.871Z,76.30
2022-11-10T17:36:05.084Z,76.40
2022-11-10T17:38:52.332Z,76.30
2022-11-10T17:41:38.719Z,76.30
2022-11-10T17:44:24.678Z,76.30
2022-11-10T17:47:10.422Z,76.50
2022-11-10T17:49:56.433Z,76.90
2022-11-10T17:52:42.663Z,76.90
2022-11-10T17:55:34.071Z,77.10
2022-11-10T17:58:21.044Z,77.10
2022-11-10T18:01:18.686Z,77.00
2022-11-10T18:04:05.188Z,77.00
2022-11-10T18:06:51.427Z,76.90
2022-11-10T18:09:37.074Z,76.90
2022-11-10T18:12:27.776Z,77.00
2022-11-10T18:15:16.421Z,77.00
2022-11-10T18:18:02.444Z,76.90
2022-11-10T18:20:48.423Z,77.10
2022-11-10T18:23:34.772Z,77.20
2022-11-10T18:26:21.170Z,77.20
2022-11-10T18:29:07.108Z,77.20
2022-11-10T18:31:53.043Z,77.20
2022-11-10T18:34:39.236Z,77.00
2022-11-10T18:37:25.554Z,76.90
2022-11-10T18:40:12.324Z,76.90
2022-11-10T18:43:03.154Z,76.90
2022-11-10T18:45:53.971Z,76.90
2022-11-10T18:48:41.152Z,76.90
2022-11-10T18:51:27.367Z,77.00
2022-11-10T18:54:13.330Z,77.00
2022-11-10T18:56:59.639Z,77.20
2022-11-10T18:59:45.951Z,77.20
2022-11-10T19:02:32.011Z,77.10
2022-11-10T19:05:18.038Z,77.10
2022-11-10T19:08:04.215Z,77.00
2022-11-10T19:10:50.279Z,77.20
2022-11-10T19:13:37.371Z,77.10
2022-11-10T19:16:23.457Z,77.20
2022-11-10T19:19:10.706Z,77.40
2022-11-10T19:21:56.773Z,77.50
2022-11-10T19:25:06.206Z,78.20
2022-11-10T19:27:48.681Z,77.50
2022-11-10T19:30:34.711Z,77.50
2022-11-10T19:33:21.166Z,77.50
2022-11-10T19:36:15.702Z,77.50
2022-11-10T19:39:01.423Z,77.30
2022-11-10T19:41:47.385Z,77.30
2022-11-10T19:44:33.483Z,77.30
2022-11-10T19:47:19.558Z,77.10
2022-11-10T19:50:05.920Z,77.10
2022-11-10T19:52:52.174Z,77.10
2022-11-10T19:55:38.155Z,77.20
2022-11-10T19:58:24.356Z,77.30
2022-11-10T20:01:11.732Z,77.40
2022-11-10T20:04:02.860Z,77.60
2022-11-10T20:06:48.438Z,77.90
2022-11-10T20:09:34.388Z,78.10
2022-11-10T20:12:20.067Z,78.10
2022-11-10T20:15:06.648Z,78.00
2022-11-10T20:17:52.863Z,78.00
2022-11-10T20:20:39.747Z,78.10
2022-11-10T20:23:26.043Z,78.00
2022-11-10T20:26:14.978Z,77.80
2022-11-10T20:29:00.949Z,77.70
2022-11-10T20:31:46.712Z,77.70
2022-11-10T20:34:32.770Z,77.70
2022-11-10T20:37:18.838Z,77.70
2022-11-10T20:40:14.059Z,77.90
2022-11-10T20:43:10.346Z,77.90
2022-11-10T20:45:56.090Z,77.90
2022-11-10T20:48:43.575Z,78.10
2022-11-10T20:51:29.895Z,78.10
2022-11-10T20:54:17.397Z,77.90
2022-11-10T20:57:03.489Z,77.90
2022-11-10T20:59:49.606Z,78.40
2022-11-10T21:02:35.556Z,77.90
2022-11-10T21:05:21.394Z,78.00
2022-11-10T21:08:07.684Z,78.00
2022-11-10T21:11:05.808Z,78.10
2022-11-10T21:13:52.086Z,78.30
2022-11-10T21:16:38.087Z,78.20
2022-11-10T21:19:24.139Z,78.10
2022-11-10T21:22:10.207Z,78.00
2022-11-10T21:24:56.028Z,78.30
2022-11-10T21:27:42.035Z,78.50
2022-11-10T21:30:28.402Z,78.50
2022-11-10T21:33:14.647Z,78.40
2022-11-10T21:36:07.183Z,78.30
2022-11-10T21:38:53.308Z,78.30
2022-11-10T21:41:39.134Z,78.10
2022-11-10T21:44:25.118Z,77.90
2022-11-10T21:47:11.597Z,77.90
2022-11-10T21:49:57.578Z,77.90
2022-11-10T21:52:43.638Z,77.80
2022-11-10T21:55:29.769Z,77.90
2022-11-10T21:58:15.611Z,77.90
2022-11-10T22:01:07.437Z,77.90
2022-11-10T22:03:53.635Z,78.00
2022-11-10T22:06:58.332Z,78.00
2022-11-10T22:10:03.315Z,78.00
2022-11-10T22:13:08.378Z,78.00
2022-11-10T22:16:13.339Z,77.90
2022-11-10T22:18:59.483Z,78.00
2022-11-10T22:21:45.567Z,77.90
2022-11-10T22:24:31.804Z,78.10
2022-11-10T22:27:18.044Z,78.20
2022-11-10T22:30:04.594Z,78.50
2022-11-10T22:32:50.570Z,78.60
2022-11-10T22:35:45.673Z,78.60
2022-11-10T22:38:37.257Z,78.80
2022-11-10T22:41:42.537Z,78.90
2022-11-10T22:44:28.590Z,78.80
2022-11-10T22:47:14.432Z,78.60
2022-11-10T22:50:00.245Z,78.60
2022-11-10T22:52:46.131Z,78.70
2022-11-10T22:55:31.921Z,78.70
2022-11-10T22:58:18.783Z,78.70
2022-11-10T23:01:09.513Z,78.80
2022-11-10T23:03:59.550Z,78.80
2022-11-10T23:06:45.377Z,78.80
2022-11-10T23:09:31.245Z,78.70
2022-11-10T23:12:18.228Z,78.70
2022-11-10T23:15:04.158Z,78.70
2022-11-10T23:17:50.373Z,78.50
2022-11-10T23:20:36.632Z,78.50
2022-11-10T23:23:22.954Z,78.40
2022-11-10T23:26:17.798Z,78.50
2022-11-10T23:29:03.683Z,78.30
2022-11-10T23:31:50.155Z,78.40
2022-11-10T23:34:35.889Z,78.40
2022-11-10T23:37:22.510Z,78.40
2022-11-10T23:40:09.319Z,78.50
2022-11-10T23:42:55.195Z,78.50
2022-11-10T23:46:05.488Z,78.50
2022-11-10T23:48:47.469Z,78.40
2022-11-10T23:51:33.256Z,78.40
2022-11-10T23:54:20.013Z,78.40
2022-11-10T23:57:06.233Z,78.50
2022-11-10T23:59:52.032Z,78.30
